EHBK/MST METAR and TAF weather

Enter ICAO airport designator
Station Type Date Time Source
EHBK METAR 2018/12/10 17:25 UTC NOAA

EHBK 101725Z AUTO 27004KT 230V310 9999 NCD 04/03 Q1024 NOSIG


Station Type Date Time Source
EHBK Decoded METAR 2018/12/10 17:25 UTC NOAA

Maastricht Airport Zuid Limburg, Netherlands (EHBK) 50-55N 005-47E 116M
Dec 10, 2018 - 12:25 PM EST / 2018.12.10 1725 UTC
Wind: from the W (270 degrees) at 5 MPH (4 KT) (direction variable):0
Visibility: greater than 7 mile(s):0
Temperature: 39 F (4 C)
Dew Point: 37 F (3 C)
Relative Humidity: 93%
Pressure (altimeter): 30.24 in. Hg (1024 hPa)
ob: EHBK 101725Z AUTO 27004KT 230V310 9999 NCD 04/03 Q1024 NOSIG
cycle: 17

Station Type Date Time Source
EHBK TAF 2018/12/10 18:27 UTC NOAA

TAF EHBK 101702Z 1018/1124 27008KT 9999 SCT040 PROB30
TEMPO 1109/1116 6000 -SHRA -RA FEW025TCU BKN040
BECMG 1121/1124 6000 PROB30 1121/1124 2500 MIFG BR


Example: see airport list